Terminal Aerodrome Forecast
Issued by NWS

Home | Current Version | Previous Version | Text Only | Print | Product List | Glossary On
Versions: 1 2 3 4 5 6 7 8 9 10 11 12 13 14 15 16 17 18 19 20 21 22 23
611
FTUS43 KDVN 152328
TAFBRL
TAF
KBRL 152328Z 1600/1624 11005KT 6SM -FZRAPL BR OVC035
     FM160300 10006KT 3SM -FZRA BR OVC009
     FM161300 09008KT 3SM -RA BR OVC007
     FM161500 10009KT 2SM RA BR OVC005=

USA.gov is the U.S. government's official web portal to all federal, state and local government web resources and services.